createdAt,value
2023-01-08T10:15:06.793Z,58.89
2023-01-08T10:17:46.005Z,58.87
2023-01-08T10:20:17.479Z,58.69
2023-01-08T10:22:48.201Z,58.89
2023-01-08T10:25:20.907Z,58.89
2023-01-08T10:27:50.702Z,58.98
2023-01-08T10:30:22.809Z,58.97
2023-01-08T10:32:54.622Z,59.00
2023-01-08T10:35:33.346Z,58.71
2023-01-08T10:38:02.480Z,58.89
2023-01-08T10:40:38.421Z,58.99
2023-01-08T10:43:20.395Z,59.10
2023-01-08T10:45:58.015Z,59.03
2023-01-08T10:48:33.423Z,58.99
2023-01-08T10:51:17.371Z,58.89
2023-01-08T10:53:45.655Z,59.05
2023-01-08T10:56:26.019Z,59.05
2023-01-08T10:58:54.515Z,59.01
2023-01-08T11:01:25.775Z,59.05
2023-01-08T11:03:57.809Z,58.99
2023-01-08T11:06:28.129Z,59.10
2023-01-08T11:09:14.339Z,59.15
2023-01-08T11:11:42.400Z,59.10
2023-01-08T11:14:28.187Z,59.15
2023-01-08T11:16:57.075Z,59.18
2023-01-08T11:19:33.292Z,59.21
2023-01-08T11:22:17.489Z,59.24
2023-01-08T11:24:46.981Z,59.20
2023-01-08T11:27:39.426Z,59.19
2023-01-08T11:30:13.737Z,59.14
2023-01-08T11:33:12.936Z,59.28
2023-01-08T11:36:01.069Z,59.20
2023-01-08T11:38:29.146Z,59.32
2023-01-08T11:41:03.768Z,59.20
2023-01-08T11:44:06.136Z,59.16
2023-01-08T11:46:45.354Z,59.37
2023-01-08T11:49:28.680Z,59.38
2023-01-08T11:52:15.080Z,59.40
2023-01-08T11:54:55.474Z,59.34
2023-01-08T11:57:32.508Z,59.55
2023-01-08T12:00:22.793Z,59.34
2023-01-08T12:03:03.552Z,59.43
2023-01-08T12:05:40.734Z,59.61
2023-01-08T12:08:34.114Z,59.50
2023-01-08T12:11:14.346Z,59.50
2023-01-08T12:14:13.750Z,59.44
2023-01-08T12:16:44.742Z,59.67
2023-01-08T12:19:37.127Z,59.57
2023-01-08T12:22:31.390Z,59.61
2023-01-08T12:25:23.012Z,59.70
2023-01-08T12:28:17.178Z,59.55
2023-01-08T12:31:10.176Z,59.46
2023-01-08T12:33:56.328Z,59.56
2023-01-08T12:36:30.841Z,59.64
2023-01-08T12:39:29.405Z,59.66
2023-01-08T12:42:11.827Z,59.60
2023-01-08T12:44:40.808Z,59.66
2023-01-08T12:47:16.647Z,59.72
2023-01-08T12:49:52.829Z,59.55
2023-01-08T12:52:37.011Z,59.70
2023-01-08T12:55:37.591Z,59.58
2023-01-08T12:58:23.568Z,59.61
2023-01-08T13:01:07.615Z,59.58
2023-01-08T13:03:36.404Z,59.76
2023-01-08T13:06:23.196Z,59.66
2023-01-08T13:08:54.092Z,59.69
2023-01-08T13:11:28.053Z,59.66
2023-01-08T13:14:09.345Z,59.67
2023-01-08T13:16:39.894Z,59.54
2023-01-08T13:19:25.084Z,59.63
2023-01-08T13:21:58.462Z,59.64
2023-01-08T13:24:41.245Z,59.56
2023-01-08T13:27:28.249Z,59.63
2023-01-08T13:29:58.273Z,59.73
2023-01-08T13:32:44.267Z,59.69
2023-01-08T13:35:15.219Z,59.58
2023-01-08T13:37:44.208Z,59.60
2023-01-08T13:40:43.186Z,59.73
2023-01-08T13:43:19.943Z,59.55
2023-01-08T13:46:00.069Z,59.47
2023-01-08T13:48:32.740Z,59.58
2023-01-08T13:51:01.164Z,59.56
2023-01-08T13:53:29.655Z,59.55
2023-01-08T13:56:06.008Z,59.55
2023-01-08T13:58:38.149Z,59.73
2023-01-08T14:01:07.954Z,59.62
2023-01-08T14:03:38.854Z,59.70
2023-01-08T14:06:20.309Z,59.80
2023-01-08T14:09:01.503Z,59.72
2023-01-08T14:11:31.111Z,59.63
2023-01-08T14:13:59.598Z,59.81
2023-01-08T14:16:28.465Z,60.12
2023-01-08T14:19:01.586Z,60.26
2023-01-08T14:21:29.747Z,60.30
2023-01-08T14:23:58.440Z,60.36
2023-01-08T14:26:41.572Z,60.45
2023-01-08T14:29:19.798Z,60.39
2023-01-08T14:32:00.465Z,60.27
2023-01-08T14:34:32.660Z,60.41
2023-01-08T14:37:00.791Z,60.22
2023-01-08T14:39:31.565Z,60.36
2023-01-08T14:42:37.868Z,60.34
2023-01-08T14:45:15.362Z,60.27
2023-01-08T14:47:46.118Z,60.33
2023-01-08T14:50:28.644Z,60.28
2023-01-08T14:53:09.880Z,60.28
2023-01-08T14:55:44.817Z,60.40
2023-01-08T14:58:22.508Z,60.25
2023-01-08T15:01:03.241Z,60.38
2023-01-08T15:03:34.621Z,60.44
2023-01-08T15:06:03.792Z,60.28
2023-01-08T15:08:34.363Z,60.33
2023-01-08T15:11:04.377Z,60.35
2023-01-08T15:13:35.796Z,60.31
2023-01-08T15:16:11.029Z,60.38
2023-01-08T15:18:49.026Z,60.39
2023-01-08T15:21:22.789Z,60.49
2023-01-08T15:23:55.055Z,60.47
2023-01-08T15:26:24.207Z,60.42
2023-01-08T15:28:58.779Z,60.41
2023-01-08T15:31:32.214Z,60.26
2023-01-08T15:34:01.281Z,60.34
2023-01-08T15:36:29.474Z,60.12
2023-01-08T15:38:57.646Z,60.11
2023-01-08T15:42:04.428Z,60.07
2023-01-08T15:44:32.682Z,60.14
2023-01-08T15:47:00.746Z,60.00
2023-01-08T15:49:29.035Z,59.93
2023-01-08T15:51:57.108Z,59.88
2023-01-08T15:54:26.021Z,59.92
2023-01-08T15:56:54.088Z,59.85
2023-01-08T15:59:22.258Z,59.75
2023-01-08T16:01:50.541Z,59.59
2023-01-08T16:04:18.829Z,59.48
2023-01-08T16:06:47.189Z,59.60
2023-01-08T16:09:15.249Z,59.57
2023-01-08T16:11:43.565Z,59.47
2023-01-08T16:14:11.847Z,59.64
2023-01-08T16:16:40.163Z,59.56
2023-01-08T16:19:08.302Z,59.55
2023-01-08T16:21:36.589Z,59.52
2023-01-08T16:24:05.430Z,59.42
2023-01-08T16:26:33.658Z,59.52
2023-01-08T16:29:01.732Z,59.50
2023-01-08T16:31:29.815Z,59.66
2023-01-08T16:34:05.365Z,59.54
2023-01-08T16:36:33.638Z,59.49
2023-01-08T16:39:02.021Z,59.72
2023-01-08T16:41:30.405Z,59.82
2023-01-08T16:43:58.583Z,59.80
2023-01-08T16:46:27.080Z,59.79
2023-01-08T16:48:55.861Z,59.58
2023-01-08T16:51:26.100Z,59.69
2023-01-08T16:53:54.283Z,59.33
2023-01-08T16:56:22.343Z,59.23
2023-01-08T16:58:52.367Z,59.23
2023-01-08T17:01:21.051Z,59.13
2023-01-08T17:03:50.798Z,59.18
2023-01-08T17:06:18.946Z,59.09
2023-01-08T17:08:47.131Z,59.15
2023-01-08T17:11:21.139Z,59.30
2023-01-08T17:13:49.831Z,59.34
2023-01-08T17:16:19.273Z,59.41
2023-01-08T17:18:47.407Z,59.41
2023-01-08T17:21:18.525Z,59.56
2023-01-08T17:23:47.149Z,59.45
2023-01-08T17:26:17.856Z,59.44
2023-01-08T17:28:47.373Z,59.41
2023-01-08T17:31:18.914Z,59.51
2023-01-08T17:33:50.363Z,59.54
2023-01-08T17:36:21.754Z,59.46
2023-01-08T17:38:53.647Z,59.61
2023-01-08T17:41:41.846Z,59.43
2023-01-08T17:44:13.115Z,59.46
2023-01-08T17:46:45.411Z,59.59
2023-01-08T17:49:15.903Z,59.61
2023-01-08T17:51:46.199Z,59.51
2023-01-08T17:54:17.322Z,59.49
2023-01-08T17:56:45.730Z,59.53
2023-01-08T17:59:16.070Z,59.51
2023-01-08T18:01:46.331Z,59.30
2023-01-08T18:04:15.507Z,59.25
2023-01-08T18:06:45.865Z,59.11
2023-01-08T18:09:20.517Z,59.02
2023-01-08T18:11:50.337Z,59.09
2023-01-08T18:14:21.135Z,59.05
2023-01-08T18:16:53.906Z,58.82
2023-01-08T18:19:26.364Z,58.82
2023-01-08T18:21:56.689Z,58.88
2023-01-08T18:24:25.079Z,58.82
2023-01-08T18:26:54.068Z,58.81
2023-01-08T18:29:22.774Z,58.98
2023-01-08T18:31:56.056Z,58.98
2023-01-08T18:34:24.951Z,58.91
2023-01-08T18:36:54.212Z,58.80
2023-01-08T18:39:22.872Z,58.81
2023-01-08T18:42:09.947Z,58.69
2023-01-08T18:44:38.764Z,58.82
2023-01-08T18:47:07.918Z,58.84
2023-01-08T18:49:36.580Z,58.73
2023-01-08T18:52:05.211Z,58.69
2023-01-08T18:54:42.720Z,58.63
2023-01-08T18:57:12.159Z,58.82
2023-01-08T18:59:41.867Z,58.69
2023-01-08T19:02:19.937Z,58.85
2023-01-08T19:04:49.248Z,58.79
2023-01-08T19:07:18.827Z,58.76
2023-01-08T19:09:47.291Z,58.63
2023-01-08T19:12:16.395Z,58.79
2023-01-08T19:14:47.002Z,58.87
2023-01-08T19:17:15.902Z,58.76
2023-01-08T19:19:44.521Z,58.69
2023-01-08T19:22:13.001Z,58.78
2023-01-08T19:24:41.608Z,58.76
2023-01-08T19:27:10.143Z,58.95
2023-01-08T19:29:38.882Z,59.41
2023-01-08T19:32:09.537Z,59.65
2023-01-08T19:34:38.035Z,59.63
2023-01-08T19:37:06.751Z,59.72
2023-01-08T19:39:36.179Z,59.95
2023-01-08T19:42:23.299Z,59.73
2023-01-08T19:44:53.594Z,59.83
2023-01-08T19:47:22.129Z,59.64
2023-01-08T19:49:51.374Z,59.65
2023-01-08T19:52:20.416Z,59.65
2023-01-08T19:54:51.139Z,59.79
2023-01-08T19:57:23.373Z,59.65
2023-01-08T19:59:52.871Z,59.64
2023-01-08T20:02:27.962Z,59.68
2023-01-08T20:04:57.198Z,59.75
2023-01-08T20:07:28.719Z,59.88
2023-01-08T20:09:58.909Z,59.78
2023-01-08T20:12:27.659Z,59.71
2023-01-08T20:14:56.252Z,59.63
2023-01-08T20:17:25.322Z,59.79
2023-01-08T20:19:54.041Z,59.69
2023-01-08T20:22:22.584Z,59.64
2023-01-08T20:24:53.261Z,59.79
2023-01-08T20:27:22.245Z,59.69
2023-01-08T20:29:50.628Z,59.64
2023-01-08T20:32:22.085Z,59.58
2023-01-08T20:34:51.966Z,59.63
2023-01-08T20:37:20.632Z,59.60
2023-01-08T20:39:50.120Z,59.59
2023-01-08T20:42:33.056Z,59.66
2023-01-08T20:45:02.841Z,59.64
2023-01-08T20:47:35.345Z,59.78
2023-01-08T20:50:12.304Z,59.83
2023-01-08T20:52:49.010Z,59.58
2023-01-08T20:55:18.755Z,59.57
2023-01-08T20:57:50.250Z,59.58
2023-01-08T21:00:21.745Z,59.70
2023-01-08T21:02:50.158Z,59.57
2023-01-08T21:05:18.793Z,59.71
2023-01-08T21:07:48.736Z,59.58
2023-01-08T21:10:17.555Z,59.55
2023-01-08T21:12:46.107Z,59.74
2023-01-08T21:15:14.931Z,59.62
2023-01-08T21:17:44.899Z,59.72
2023-01-08T21:20:13.528Z,59.60
2023-01-08T21:22:42.661Z,59.59
2023-01-08T21:25:21.741Z,59.56
2023-01-08T21:27:51.246Z,59.48
2023-01-08T21:30:19.716Z,59.52
2023-01-08T21:32:51.125Z,59.55
2023-01-08T21:35:25.537Z,59.57
2023-01-08T21:37:59.085Z,59.47
2023-01-08T21:40:31.613Z,59.36
2023-01-08T21:43:19.954Z,59.28
2023-01-08T21:45:57.773Z,59.38
2023-01-08T21:48:29.321Z,59.34
2023-01-08T21:51:28.768Z,59.50
2023-01-08T21:53:57.027Z,59.51
2023-01-08T21:56:30.545Z,59.62
2023-01-08T21:59:01.431Z,59.39
2023-01-08T22:01:32.542Z,59.56
2023-01-08T22:04:01.360Z,59.30
2023-01-08T22:06:42.831Z,59.40
2023-01-08T22:09:14.555Z,59.32
2023-01-08T22:11:53.637Z,59.26
2023-01-08T22:14:24.450Z,59.37
2023-01-08T22:17:04.342Z,59.23
2023-01-08T22:19:32.718Z,59.36
2023-01-08T22:22:01.602Z,59.22
2023-01-08T22:24:35.228Z,59.41
2023-01-08T22:27:03.806Z,59.32
2023-01-08T22:29:32.349Z,59.33
2023-01-08T22:32:04.361Z,59.52
2023-01-08T22:34:34.470Z,59.32
2023-01-08T22:37:08.584Z,59.38
2023-01-08T22:39:38.856Z,59.35
2023-01-08T22:42:07.685Z,59.32
2023-01-08T22:44:38.955Z,59.26
2023-01-08T22:47:27.801Z,59.31
2023-01-08T22:49:57.777Z,59.41
2023-01-08T22:52:29.226Z,59.28
2023-01-08T22:55:00.207Z,59.18
2023-01-08T22:57:28.916Z,59.38
2023-01-08T23:00:00.316Z,59.38
2023-01-08T23:02:34.030Z,59.44
2023-01-08T23:05:05.676Z,59.48
2023-01-08T23:07:37.288Z,59.48
2023-01-08T23:10:09.917Z,59.40
2023-01-08T23:12:59.341Z,59.40
2023-01-08T23:15:28.455Z,59.45
2023-01-08T23:17:58.077Z,59.42
2023-01-08T23:20:29.306Z,59.43
2023-01-08T23:23:01.191Z,59.48
2023-01-08T23:25:43.758Z,59.41
2023-01-08T23:28:13.285Z,59.62
2023-01-08T23:30:45.244Z,59.45
2023-01-08T23:33:17.510Z,59.41
2023-01-08T23:35:48.650Z,59.44
2023-01-08T23:38:23.803Z,59.52
2023-01-08T23:40:53.017Z,59.49
2023-01-08T23:43:29.358Z,59.65
2023-01-08T23:46:14.970Z,59.51
2023-01-08T23:48:44.353Z,59.56
2023-01-08T23:51:13.471Z,59.50
2023-01-08T23:53:43.715Z,59.50
2023-01-08T23:56:15.976Z,59.62
2023-01-08T23:58:46.656Z,59.53
